Athena, OR

10:46 PM PDT on March 29, 2015 (GMT -0700)
APRSWXNET Athena OR US | | Change Station
CLOSE
Current Station
Personal Weather Station
Location: Athena, OR
Elevation: 1735 ft
Nearby Weather Stations

Elev 1735 ft 45.82 °N, 118.49 °W | Updated 35 minutes ago

Partly Cloudy
Partly Cloudy
47 °F
Feels Like 47 °F
N
0
Wind Variable Wind from West
Gusts 2.0 mph

Today
High -- | Low -- °F
--% Chance of Precip.
Yesterday
High -- | Low -- °F
Precip. -- in
6:39 AM 7:18 PM
Waxing Gibbous, 77% visible
Pressure 30.12 in
Visibility 10.0 miles
Clouds Clear
Windchill 47 °F
Dew Point 41 °F
Humidity 81%
Rainfall in
Snow Depth Not available.
UV 0 out of 12
Pollen 9.40 out of 12
Air Quality Not available.
Flu Activity Not available.
METAR KPDT 300453Z AUTO 16005KT 10SM CLR 12/05 A3013 RMK AO2 SLP199 T01170050

More Conditions Fewer Conditions

Pressure 30.12 in
Visibility 10.0 miles
Clouds Clear
Windchill 47 °F
Dew Point 41 °F
Humidity 81%
Rainfall in
Snow Depth Not available.
UV 0 out of 12
Pollen 9.40 out of 12
Air Quality Not available.
Flu Activity Not available.
METAR KPDT 300453Z AUTO 16005KT 10SM CLR 12/05 A3013 RMK AO2 SLP199 T01170050

More Conditions Fewer Conditions

10-Day Weather Forecast

Almanac

Astronomy

Mar. 29, 2015 Rise Set
Actual Time
Civil Twilight
Nautical Twilight
Astronomical Twilight
Moon
Length of Visible Light
Length of Day
Tomorrow will be .
, % of the Moon is Illuminated

Today's Extremes

State Highs State Lows

Community

WunderPhotos

Upload Photos

1,809,437 photos uploaded!

WunderBlogs® & News

Nearby

Air Quality

  Air Quality AQ Index Pollutant
Not available.

Snow Depth

Station Depth Elevation

Earthquake Activity

City Distance Mag. Time & Date
Minimum magnitude displayed is 2.5.

Coastal Water Temperatures

Place Temperature

Stations

Nearby Weather Stations

Station Location Temp. Windchill Dew Point Humidity Wind Precip. Elev Updated Type